Time;durP1;ratioP1;P1;durP2;ratioP2;P2;SDS_P1;SDS_P2;PMS_P1;PMS_P2;Temp;Humidity;BMP_temperature;BMP_pressure;BME280_temperature;BME280_humidity;BME280_pressure;Samples;Min_cycle;Max_cycle;Signal;HPM_P1;HPM_P2
2021/12/22 00:00:01;;;;;;;0.00;0.00;;;-1.50;99.90;;;;;;5073092;28;20021;-48
2021/12/22 00:02:30;;;;;;;0.00;0.00;;;-1.50;99.90;;;;;;5072626;28;20052;-52
2021/12/22 00:04:56;;;;;;;0.00;0.00;;;-1.60;99.90;;;;;;5072405;28;20119;-51
2021/12/22 00:07:22;;;;;;;0.22;0.22;;;-1.60;99.90;;;;;;5073589;28;20025;-46
2021/12/22 00:09:48;;;;;;;0.00;0.00;;;-1.60;99.90;;;;;;5076637;28;20459;-47
2021/12/22 00:12:13;;;;;;;0.00;0.00;;;-1.60;99.90;;;;;;5076767;28;20028;-50
2021/12/22 00:14:39;;;;;;;0.00;0.00;;;-1.60;99.90;;;;;;5075177;28;20025;-50
2021/12/22 00:17:05;;;;;;;0.00;0.00;;;-1.60;99.90;;;;;;5075669;28;20033;-50
2021/12/22 00:19:30;;;;;;;2.30;2.20;;;-1.70;99.90;;;;;;5076106;28;20059;-47
2021/12/22 00:21:56;;;;;;;0.00;0.00;;;-1.70;99.90;;;;;;5076004;28;20485;-49
2021/12/22 00:24:22;;;;;;;0.32;0.32;;;-1.60;99.90;;;;;;5076317;28;20040;-49
2021/12/22 00:26:47;;;;;;;0.00;0.00;;;-1.70;99.90;;;;;;5076286;28;20029;-50
2021/12/22 00:29:14;;;;;;;0.00;0.00;;;-1.70;99.90;;;;;;5076057;28;20036;-50
2021/12/22 00:31:56;;;;;;;0.00;0.00;;;-1.70;99.90;;;;;;5076300;28;20111;-51
2021/12/22 00:34:24;;;;;;;0.00;0.00;;;-1.70;99.90;;;;;;5074986;28;20036;-50
2021/12/22 00:36:50;;;;;;;0.13;0.13;;;-1.70;99.90;;;;;;5076231;28;20017;-49
2021/12/22 00:39:15;;;;;;;0.00;0.00;;;-1.70;99.90;;;;;;5076458;28;20463;-49
2021/12/22 00:41:41;;;;;;;0.00;0.00;;;-1.70;99.90;;;;;;5076442;28;20032;-53
2021/12/22 00:44:07;;;;;;;0.00;0.00;;;-1.70;99.90;;;;;;5075953;28;20021;-52
2021/12/22 00:46:32;;;;;;;0.20;0.15;;;-1.70;99.90;;;;;;5076102;28;20032;-49
2021/12/22 00:48:58;;;;;;;0.00;0.00;;;-1.70;99.90;;;;;;5075746;28;20029;-50
2021/12/22 00:51:23;;;;;;;1.38;1.23;;;-1.70;99.90;;;;;;5075729;28;20489;-48
2021/12/22 00:53:49;;;;;;;0.30;0.30;;;-1.80;99.90;;;;;;5075926;28;20082;-52
2021/12/22 00:56:15;;;;;;;0.00;0.00;;;-1.80;99.90;;;;;;5075954;28;20074;-49
2021/12/22 00:58:41;;;;;;;0.30;0.30;;;-1.90;99.90;;;;;;5076107;28;20031;-52
2021/12/22 01:01:07;;;;;;;0.00;0.00;;;-1.90;99.90;;;;;;5075851;28;20387;-49
2021/12/22 01:03:35;;;;;;;0.00;0.00;;;-1.80;99.90;;;;;;5075820;28;20025;-47
2021/12/22 01:06:03;;;;;;;0.00;0.00;;;-1.80;99.90;;;;;;5075330;28;20056;-48
2021/12/22 01:08:28;;;;;;;0.00;0.00;;;-1.90;99.90;;;;;;5075636;28;20035;-47
2021/12/22 01:10:54;;;;;;;0.00;0.00;;;-1.80;99.90;;;;;;5075605;28;20032;-51
2021/12/22 01:13:20;;;;;;;0.00;0.00;;;-1.90;99.90;;;;;;5075539;28;20395;-48
2021/12/22 01:15:45;;;;;;;0.05;0.05;;;-1.90;99.90;;;;;;5074546;28;20132;-51
2021/12/22 01:18:15;;;;;;;0.00;0.00;;;-1.90;99.90;;;;;;5075284;28;20058;-50
2021/12/22 01:23:20;;;;;;;1.15;0.77;;;-2.00;99.90;;;;;;5075490;28;20108;-48
2021/12/22 01:25:48;;;;;;;0.00;0.00;;;-2.10;99.90;;;;;;5075016;28;20152;-48
2021/12/22 01:28:15;;;;;;;0.00;0.00;;;-2.10;99.90;;;;;;5075366;28;20379;-50
2021/12/22 01:30:45;;;;;;;0.00;0.00;;;-2.10;99.90;;;;;;5075077;28;20114;-52
2021/12/22 01:33:12;;;;;;;0.00;0.00;;;-2.10;99.90;;;;;;5075278;28;20024;-50
2021/12/22 01:35:39;;;;;;;7.13;1.73;;;-2.10;99.90;;;;;;5074890;28;20463;-52
2021/12/22 01:38:06;;;;;;;0.00;0.00;;;-2.10;99.90;;;;;;5074844;28;20127;-50
2021/12/22 01:40:34;;;;;;;4.57;4.18;;;-2.10;99.90;;;;;;5074682;28;20020;-48
2021/12/22 01:43:02;;;;;;;1.70;1.60;;;-2.10;99.90;;;;;;5074950;28;20032;-52
2021/12/22 01:51:35;;;;;;;0.00;0.00;;;-2.30;99.90;;;;;;5074614;28;20052;-52
2021/12/22 01:54:04;;;;;;;0.00;0.00;;;-2.30;99.90;;;;;;5074625;28;20048;-49
2021/12/22 01:56:32;;;;;;;0.00;0.00;;;-2.30;99.90;;;;;;5074804;28;20048;-48
2021/12/22 01:59:00;;;;;;;0.00;0.00;;;-2.30;99.90;;;;;;5074757;28;20107;-48
2021/12/22 02:01:29;;;;;;;0.00;0.00;;;-2.30;99.90;;;;;;5074674;28;20074;-51
2021/12/22 02:03:55;;;;;;;0.00;0.00;;;-2.40;99.90;;;;;;5074086;28;20060;-52
2021/12/22 02:06:22;;;;;;;0.00;0.00;;;-2.40;99.90;;;;;;5073365;28;20058;-49
2021/12/22 02:08:48;;;;;;;0.00;0.00;;;-2.40;99.90;;;;;;5074545;28;20028;-50
2021/12/22 02:11:16;;;;;;;0.00;0.00;;;-2.30;99.90;;;;;;5074446;28;20459;-49
2021/12/22 02:13:46;;;;;;;0.22;0.22;;;-2.40;99.90;;;;;;5074427;28;20089;-52
2021/12/22 02:16:14;;;;;;;0.00;0.00;;;-2.40;99.90;;;;;;5074051;28;20033;-49
2021/12/22 02:18:44;;;;;;;0.00;0.00;;;-2.40;99.90;;;;;;5073945;28;20033;-49
2021/12/22 02:21:10;;;;;;;0.95;0.95;;;-2.40;99.90;;;;;;5074472;28;20031;-47
2021/12/22 02:23:36;;;;;;;0.00;0.00;;;-2.40;99.90;;;;;;5074226;28;20401;-50
2021/12/22 02:26:14;;;;;;;15.50;4.13;;;-2.40;99.90;;;;;;5072758;28;20044;-50
2021/12/22 02:28:45;;;;;;;0.00;0.00;;;-2.40;99.90;;;;;;5074262;28;20036;-49
2021/12/22 02:31:13;;;;;;;10.02;2.33;;;-2.40;99.90;;;;;;5073180;28;20028;-47
2021/12/22 02:33:41;;;;;;;0.05;0.05;;;-2.40;99.90;;;;;;5073798;28;20074;-51
2021/12/22 02:36:20;;;;;;;0.00;0.00;;;-2.40;99.90;;;;;;5074053;28;20025;-49
2021/12/22 02:38:51;;;;;;;0.30;0.30;;;-2.50;99.90;;;;;;5072848;28;20085;-52
2021/12/22 02:41:20;;;;;;;0.08;0.08;;;-2.50;99.90;;;;;;5073731;28;20036;-51
2021/12/22 02:43:49;;;;;;;0.00;0.00;;;-2.60;99.90;;;;;;5073916;28;20064;-49
2021/12/22 02:46:17;;;;;;;0.00;0.00;;;-2.60;99.90;;;;;;5073777;28;20111;-47
2021/12/22 02:48:44;;;;;;;0.00;0.00;;;-2.70;99.90;;;;;;5074125;28;20035;-50
2021/12/22 02:51:10;;;;;;;0.05;0.05;;;-2.60;99.90;;;;;;5073973;28;20024;-48
2021/12/22 02:53:46;;;;;;;0.00;0.00;;;-2.70;99.90;;;;;;5074151;28;20374;-50
2021/12/22 02:56:29;;;;;;;0.00;0.00;;;-2.60;99.90;;;;;;5072546;28;20025;-49
2021/12/22 03:06:24;;;;;;;0.00;0.00;;;-2.60;99.90;;;;;;5073775;28;20115;-47
2021/12/22 03:08:50;;;;;;;0.00;0.00;;;-2.60;99.90;;;;;;5073741;28;20025;-55
2021/12/22 03:11:16;;;;;;;0.00;0.00;;;-2.70;99.90;;;;;;5073274;28;20056;-50
2021/12/22 03:13:41;;;;;;;0.00;0.00;;;-2.70;99.90;;;;;;5073628;28;20024;-49
2021/12/22 03:16:07;;;;;;;0.00;0.00;;;-2.60;99.90;;;;;;5073477;28;20048;-49
2021/12/22 03:18:34;;;;;;;0.00;0.00;;;-2.60;99.90;;;;;;5073136;28;20390;-49
2021/12/22 03:21:11;;;;;;;0.00;0.00;;;-2.70;99.90;;;;;;5073232;28;20032;-54
2021/12/22 03:23:37;;;;;;;0.00;0.00;;;-2.70;99.90;;;;;;5073562;28;20032;-48
2021/12/22 03:26:03;;;;;;;0.65;0.65;;;-2.70;99.90;;;;;;5073470;28;20040;-49
2021/12/22 03:28:30;;;;;;;0.00;0.00;;;-2.80;99.90;;;;;;5073519;28;20533;-49
2021/12/22 03:30:58;;;;;;;0.30;0.30;;;-2.80;99.90;;;;;;5073454;28;20024;-50
2021/12/22 03:33:24;;;;;;;0.00;0.00;;;-2.80;99.90;;;;;;5072183;28;20047;-48
2021/12/22 03:35:49;;;;;;;0.00;0.00;;;-2.80;99.90;;;;;;5073350;28;20486;-50
2021/12/22 03:38:15;;;;;;;0.00;0.00;;;-2.80;99.90;;;;;;5073598;28;20103;-51
2021/12/22 03:40:41;;;;;;;0.00;0.00;;;-2.80;99.90;;;;;;5072083;28;20115;-54
2021/12/22 03:43:06;;;;;;;0.00;0.00;;;-2.80;99.90;;;;;;5109633;28;20025;-48
2021/12/22 03:45:32;;;;;;;0.00;0.00;;;-2.80;99.90;;;;;;5075941;28;20606;-48
2021/12/22 03:47:57;;;;;;;0.00;0.00;;;-2.80;99.90;;;;;;5076888;28;20021;-49
2021/12/22 03:50:23;;;;;;;0.00;0.00;;;-2.90;99.90;;;;;;5077141;28;20107;-49
2021/12/22 03:52:49;;;;;;;0.00;0.00;;;-2.80;99.90;;;;;;5076772;28;20470;-51
2021/12/22 03:55:15;;;;;;;0.00;0.00;;;-2.90;99.90;;;;;;5077023;28;20047;-51
2021/12/22 03:57:41;;;;;;;0.75;0.75;;;-2.80;99.90;;;;;;5076709;28;20024;-50
2021/12/22 04:00:10;;;;;;;0.00;0.00;;;-2.90;99.90;;;;;;5076656;28;20108;-48
2021/12/22 04:02:36;;;;;;;0.00;0.00;;;-2.90;99.90;;;;;;5076938;28;20035;-48
2021/12/22 04:05:03;;;;;;;0.00;0.00;;;-2.90;99.90;;;;;;5076583;28;20040;-50
2021/12/22 04:07:29;;;;;;;0.00;0.00;;;-2.80;99.90;;;;;;5076765;28;20154;-53
2021/12/22 04:09:54;;;;;;;0.00;0.00;;;-2.80;99.90;;;;;;5076728;28;20058;-52
2021/12/22 04:12:20;;;;;;;0.75;0.75;;;-2.80;99.90;;;;;;5076327;28;20459;-50
2021/12/22 04:14:45;;;;;;;0.00;0.00;;;-2.80;99.90;;;;;;5076563;28;20025;-49
2021/12/22 04:17:11;;;;;;;0.00;0.00;;;-2.90;99.90;;;;;;5076658;28;20024;-51
2021/12/22 04:19:37;;;;;;;0.00;0.00;;;-2.90;99.90;;;;;;5076230;28;20086;-49
2021/12/22 04:22:04;;;;;;;0.10;0.10;;;-2.90;99.90;;;;;;5076512;28;20459;-48
2021/12/22 04:24:30;;;;;;;1.08;0.80;;;-2.80;99.90;;;;;;5076324;28;20111;-50
2021/12/22 04:26:55;;;;;;;0.00;0.00;;;-2.90;99.90;;;;;;5075129;28;20489;-48
2021/12/22 04:29:21;;;;;;;0.00;0.00;;;-2.90;99.90;;;;;;5076075;28;20387;-49
2021/12/22 04:31:47;;;;;;;0.10;0.10;;;-2.90;99.90;;;;;;5076328;28;20025;-47
2021/12/22 04:34:13;;;;;;;0.00;0.00;;;-2.90;99.90;;;;;;5075860;28;20390;-51
2021/12/22 04:36:40;;;;;;;0.10;0.10;;;-2.90;99.90;;;;;;5075825;28;20031;-46
2021/12/22 04:39:08;;;;;;;0.65;0.65;;;-3.00;99.90;;;;;;5075892;28;20490;-52
2021/12/22 04:41:33;;;;;;;0.00;0.00;;;-3.00;99.90;;;;;;5074924;28;20028;-50
2021/12/22 04:43:59;;;;;;;0.00;0.00;;;-2.90;99.90;;;;;;5075809;28;20115;-47
2021/12/22 04:46:25;;;;;;;0.00;0.00;;;-2.90;99.90;;;;;;5075950;28;20070;-46
2021/12/22 04:48:51;;;;;;;0.00;0.00;;;-2.90;99.90;;;;;;5076021;28;20027;-47
2021/12/22 04:51:29;;;;;;;0.00;0.00;;;-2.90;99.90;;;;;;5075632;28;20025;-52
2021/12/22 04:54:12;;;;;;;0.00;0.00;;;-3.00;99.90;;;;;;5075392;28;20024;-51
2021/12/22 04:56:39;;;;;;;0.00;0.00;;;-3.00;99.90;;;;;;5075866;28;20028;-47
2021/12/22 04:59:05;;;;;;;0.00;0.00;;;-3.00;99.90;;;;;;5074533;28;20141;-48
2021/12/22 05:01:31;;;;;;;0.10;0.10;;;-3.00;99.90;;;;;;5075791;28;20070;-47
2021/12/22 05:03:56;;;;;;;0.00;0.00;;;-3.00;99.90;;;;;;5075543;28;20115;-48
2021/12/22 05:06:23;;;;;;;0.00;0.00;;;-3.00;99.90;;;;;;5075554;28;20032;-49
2021/12/22 05:08:49;;;;;;;0.00;0.00;;;-3.00;99.90;;;;;;5075661;28;20025;-52
2021/12/22 05:11:14;;;;;;;0.55;0.55;;;-3.10;99.90;;;;;;5075616;28;20021;-50
2021/12/22 05:13:40;;;;;;;0.25;0.25;;;-3.10;99.90;;;;;;5107921;28;20521;-52
2021/12/22 05:16:06;;;;;;;0.00;0.00;;;-3.10;99.90;;;;;;5074842;28;20028;-57
2021/12/22 05:21:16;;;;;;;0.13;0.13;;;-3.10;99.90;;;;;;5075436;28;20490;-48
2021/12/22 05:23:42;;;;;;;0.38;0.38;;;-3.00;99.90;;;;;;5074997;28;20032;-48
2021/12/22 05:26:07;;;;;;;0.00;0.00;;;-2.90;99.90;;;;;;5074673;28;20036;-50
2021/12/22 05:28:33;;;;;;;0.00;0.00;;;-2.90;99.90;;;;;;5075010;28;20036;-47
2021/12/22 05:30:59;;;;;;;0.25;0.20;;;-2.80;99.90;;;;;;5074580;28;20025;-48
2021/12/22 05:33:24;;;;;;;0.15;0.15;;;-2.70;99.90;;;;;;5074971;28;20025;-47
2021/12/22 05:35:50;;;;;;;0.52;0.30;;;-2.70;99.90;;;;;;5073725;28;20028;-49
2021/12/22 05:38:17;;;;;;;0.00;0.00;;;-2.60;99.90;;;;;;5074977;28;20031;-48
2021/12/22 05:40:43;;;;;;;0.00;0.00;;;-2.50;99.90;;;;;;5074731;28;20111;-49
2021/12/22 05:43:09;;;;;;;0.00;0.00;;;-2.40;99.90;;;;;;5074657;28;20444;-47
2021/12/22 05:45:34;;;;;;;0.00;0.00;;;-2.40;99.90;;;;;;5074426;28;20042;-50
2021/12/22 05:48:00;;;;;;;0.90;0.90;;;-2.30;99.90;;;;;;5074353;28;20044;-50
2021/12/22 05:50:26;;;;;;;0.10;0.10;;;-2.20;99.90;;;;;;5074338;28;20024;-52
2021/12/22 05:52:52;;;;;;;0.00;0.00;;;-2.10;99.90;;;;;;5074438;28;20534;-49
2021/12/22 05:55:18;;;;;;;2.17;0.65;;;-2.10;99.90;;;;;;5074068;28;20094;-49
2021/12/22 05:57:44;;;;;;;0.00;0.00;;;-2.00;99.90;;;;;;5074381;28;20032;-48
2021/12/22 06:00:10;;;;;;;2.15;0.93;;;-2.00;99.90;;;;;;5074044;28;20032;-48
2021/12/22 06:02:36;;;;;;;0.00;0.00;;;-1.90;99.90;;;;;;5073049;28;20474;-49
2021/12/22 06:05:01;;;;;;;0.00;0.00;;;-1.90;99.90;;;;;;5072785;28;20053;-47
2021/12/22 06:07:27;;;;;;;0.00;0.00;;;-1.90;99.90;;;;;;5073917;28;20051;-48
2021/12/22 06:09:53;;;;;;;0.15;0.15;;;-1.90;99.90;;;;;;5073732;28;20028;-49
2021/12/22 06:12:18;;;;;;;0.00;0.00;;;-1.80;99.90;;;;;;5072664;28;20111;-49
2021/12/22 06:14:44;;;;;;;0.00;0.00;;;-1.70;99.90;;;;;;5073926;28;20035;-48
2021/12/22 06:17:09;;;;;;;0.00;0.00;;;-1.80;99.90;;;;;;5073769;28;20024;-52
2021/12/22 06:19:35;;;;;;;0.00;0.00;;;-1.80;99.90;;;;;;5073400;28;20368;-50
2021/12/22 06:22:01;;;;;;;0.00;0.00;;;-1.80;99.90;;;;;;5073404;28;20028;-46
2021/12/22 06:24:27;;;;;;;0.00;0.00;;;-1.80;99.90;;;;;;5072151;28;20025;-47
2021/12/22 06:26:52;;;;;;;0.03;0.03;;;-1.70;99.90;;;;;;5073705;28;20123;-48
2021/12/22 06:29:18;;;;;;;0.00;0.00;;;-1.70;99.90;;;;;;5073536;28;20029;-48
2021/12/22 06:31:44;;;;;;;0.57;0.57;;;-1.70;99.90;;;;;;5063203;28;20035;-49
2021/12/22 06:34:09;;;;;;;0.45;0.40;;;-1.70;99.90;;;;;;5093541;28;20024;-46
2021/12/22 06:36:35;;;;;;;0.00;0.00;;;-1.60;99.90;;;;;;5083649;28;20025;-47
2021/12/22 06:39:02;;;;;;;0.10;0.10;;;-1.50;99.90;;;;;;5071274;28;20017;-51
2021/12/22 06:41:30;;;;;;;0.00;0.00;;;-1.50;99.90;;;;;;5073134;28;20032;-47
2021/12/22 06:43:56;;;;;;;0.00;0.00;;;-1.50;99.90;;;;;;5055638;28;20028;-48
2021/12/22 06:46:22;;;;;;;0.45;0.43;;;-1.50;99.90;;;;;;5067395;28;20047;-48
2021/12/22 06:48:47;;;;;;;0.00;0.00;;;-1.40;99.90;;;;;;5061305;28;20021;-46
2021/12/22 06:51:13;;;;;;;4.80;1.65;;;-1.50;99.90;;;;;;5073007;28;20028;-50
2021/12/22 06:53:39;;;;;;;0.00;0.00;;;-1.40;99.90;;;;;;5069098;28;20083;-49
2021/12/22 06:56:05;;;;;;;0.00;0.00;;;-1.50;99.90;;;;;;5055525;28;20163;-51
2021/12/22 06:58:31;;;;;;;0.00;0.00;;;-1.40;99.90;;;;;;5052904;28;20040;-51
2021/12/22 07:00:56;;;;;;;0.03;0.03;;;-1.40;99.90;;;;;;5057596;28;20029;-50
2021/12/22 07:03:22;;;;;;;0.00;0.00;;;-1.30;99.90;;;;;;5067269;28;20029;-50
2021/12/22 07:05:48;;;;;;;4.75;1.55;;;-1.30;99.90;;;;;;5064082;28;20106;-46
2021/12/22 07:08:13;;;;;;;0.00;0.00;;;-1.30;99.90;;;;;;5073858;28;20112;-48
2021/12/22 07:10:39;;;;;;;0.00;0.00;;;-1.20;99.90;;;;;;5064126;28;20032;-47
2021/12/22 07:13:06;;;;;;;0.32;0.32;;;-1.20;99.90;;;;;;5068082;28;20434;-51
2021/12/22 07:15:33;;;;;;;0.10;0.10;;;-1.20;99.90;;;;;;5072111;28;20028;-48
2021/12/22 07:17:59;;;;;;;0.00;0.00;;;-1.30;99.90;;;;;;5073626;28;20020;-51
2021/12/22 07:20:24;;;;;;;0.00;0.00;;;-1.30;99.90;;;;;;5090161;28;20028;-52
2021/12/22 07:22:50;;;;;;;0.00;0.00;;;-1.20;99.90;;;;;;5057529;28;20029;-49
2021/12/22 07:25:18;;;;;;;0.00;0.00;;;-1.30;99.90;;;;;;5070367;28;20040;-49
2021/12/22 07:27:44;;;;;;;0.00;0.00;;;-1.40;99.90;;;;;;5072961;28;20075;-47
2021/12/22 07:30:11;;;;;;;2.60;1.30;;;-1.40;99.90;;;;;;5072906;28;20383;-49
2021/12/22 07:32:37;;;;;;;0.00;0.00;;;-1.40;99.90;;;;;;5072687;28;20059;-51
2021/12/22 07:35:18;;;;;;;0.20;0.20;;;-1.40;99.90;;;;;;5072546;28;20083;-50
2021/12/22 07:37:57;;;;;;;1.15;0.70;;;-1.40;99.90;;;;;;5072817;28;20105;-53
2021/12/22 07:40:23;;;;;;;1.48;0.90;;;-1.40;99.90;;;;;;5072836;28;20421;-49
2021/12/22 07:42:49;;;;;;;0.00;0.00;;;-1.40;99.90;;;;;;5073199;28;20166;-50
2021/12/22 07:45:14;;;;;;;0.00;0.00;;;-1.40;99.90;;;;;;5072761;28;20033;-53
2021/12/22 07:47:40;;;;;;;0.65;0.65;;;-1.30;99.90;;;;;;5072323;28;20056;-48
2021/12/22 07:50:07;;;;;;;0.00;0.00;;;-1.20;99.90;;;;;;5072602;28;20024;-48
2021/12/22 07:52:33;;;;;;;0.00;0.00;;;-1.30;99.90;;;;;;5072679;28;20184;-49
2021/12/22 07:54:59;;;;;;;0.30;0.17;;;-1.20;99.90;;;;;;5072429;28;20100;-46
2021/12/22 07:57:25;;;;;;;0.10;0.10;;;-1.10;99.90;;;;;;5072158;28;20064;-51
2021/12/22 07:59:50;;;;;;;0.80;0.20;;;-1.00;99.90;;;;;;5071282;28;20048;-47
2021/12/22 08:02:16;;;;;;;0.00;0.00;;;-1.00;99.90;;;;;;5072129;28;20031;-47
2021/12/22 08:04:42;;;;;;;4.05;1.15;;;-1.10;99.90;;;;;;5072084;28;20055;-48
2021/12/22 08:07:08;;;;;;;1.02;1.02;;;-0.70;99.90;;;;;;5072233;28;20032;-48
2021/12/22 08:09:35;;;;;;;0.00;0.00;;;-0.80;99.90;;;;;;5072357;28;20025;-51
2021/12/22 08:12:04;;;;;;;0.00;0.00;;;-0.80;99.90;;;;;;5072169;28;20075;-48
2021/12/22 08:14:39;;;;;;;0.00;0.00;;;-0.90;99.90;;;;;;5072113;28;20028;-49
2021/12/22 08:17:05;;;;;;;13.35;2.83;;;-0.90;99.90;;;;;;5071820;28;20027;-50
2021/12/22 08:19:31;;;;;;;0.00;0.00;;;-0.90;99.90;;;;;;5071757;28;20021;-50
2021/12/22 08:21:57;;;;;;;0.00;0.00;;;-0.80;99.90;;;;;;5071922;28;20032;-49
2021/12/22 08:24:23;;;;;;;0.00;0.00;;;-0.80;99.90;;;;;;5072136;28;20029;-47
2021/12/22 08:26:49;;;;;;;0.50;0.50;;;-0.80;99.90;;;;;;5071991;28;20021;-50
2021/12/22 08:29:15;;;;;;;2.67;2.47;;;-0.70;99.90;;;;;;5073584;28;20032;-48
2021/12/22 08:31:41;;;;;;;0.32;0.32;;;-0.70;99.90;;;;;;5075217;28;20032;-48
2021/12/22 08:34:08;;;;;;;0.10;0.10;;;-0.60;99.90;;;;;;5075594;28;20043;-48
2021/12/22 08:39:19;;;;;;;0.17;0.17;;;-0.60;99.90;;;;;;5075019;28;20044;-50
2021/12/22 08:41:47;;;;;;;0.35;0.35;;;-0.50;99.90;;;;;;5075232;28;20024;-47
2021/12/22 08:44:15;;;;;;;0.00;0.00;;;-0.60;99.90;;;;;;5075465;28;20069;-48
2021/12/22 08:46:46;;;;;;;1.63;1.52;;;-0.50;99.90;;;;;;5075417;28;20041;-47
2021/12/22 08:49:12;;;;;;;0.00;0.00;;;-0.50;99.90;;;;;;5074192;28;20115;-47
2021/12/22 08:51:38;;;;;;;0.00;0.00;;;-0.50;99.90;;;;;;5075378;28;20101;-49
2021/12/22 08:54:03;;;;;;;0.00;0.00;;;-0.30;99.90;;;;;;5075460;28;20028;-46
2021/12/22 08:56:31;;;;;;;0.40;0.40;;;-0.20;99.90;;;;;;5074867;28;20029;-50
2021/12/22 08:58:58;;;;;;;1.98;1.45;;;-0.20;99.90;;;;;;5074840;28;20024;-48
2021/12/22 09:01:25;;;;;;;0.30;0.30;;;-0.10;99.90;;;;;;5075154;28;20032;-49
2021/12/22 09:03:51;;;;;;;0.00;0.00;;;-0.20;99.90;;;;;;5074979;28;20386;-48
2021/12/22 09:06:17;;;;;;;0.00;0.00;;;-0.10;99.90;;;;;;5074664;28;20032;-52
2021/12/22 09:08:43;;;;;;;3.90;1.85;;;-0.10;99.90;;;;;;5074774;28;20028;-49
2021/12/22 09:11:10;;;;;;;0.75;0.75;;;-0.10;99.90;;;;;;5075113;28;20025;-48
2021/12/22 09:13:37;;;;;;;1.65;1.55;;;-0.20;99.90;;;;;;5074827;28;20024;-53
2021/12/22 09:16:03;;;;;;;0.40;0.40;;;-0.10;99.90;;;;;;5073713;28;20071;-50
2021/12/22 09:18:29;;;;;;;0.15;0.15;;;0.10;99.90;;;;;;5075137;28;20025;-50
2021/12/22 09:20:55;;;;;;;2.33;1.20;;;0.00;99.90;;;;;;5075220;28;20038;-47
2021/12/22 09:23:21;;;;;;;1.38;1.27;;;0.00;99.90;;;;;;5074353;28;20099;-48
2021/12/22 09:25:46;;;;;;;0.45;0.45;;;0.00;99.90;;;;;;5074681;28;20033;-53
2021/12/22 09:28:13;;;;;;;0.40;0.40;;;0.00;99.90;;;;;;5074767;28;20452;-47
2021/12/22 09:30:40;;;;;;;0.13;0.13;;;0.00;99.90;;;;;;5074662;28;20035;-49
2021/12/22 09:33:08;;;;;;;0.00;0.00;;;-0.10;99.90;;;;;;5074670;28;20108;-49
2021/12/22 09:35:34;;;;;;;4.57;3.92;;;-0.10;99.90;;;;;;5074791;28;20028;-49
2021/12/22 09:38:00;;;;;;;0.00;0.00;;;0.10;99.90;;;;;;5074087;28;20028;-47
2021/12/22 09:40:26;;;;;;;1.10;1.08;;;0.00;99.90;;;;;;5072613;28;20028;-48
2021/12/22 09:42:52;;;;;;;0.60;0.43;;;0.10;99.90;;;;;;5073970;28;20051;-48
2021/12/22 09:45:19;;;;;;;0.43;0.43;;;-0.10;99.90;;;;;;5074241;28;20040;-48
2021/12/22 09:48:15;;;;;;;2.72;0.77;;;-0.10;99.90;;;;;;5074072;28;20467;-46
2021/12/22 09:53:20;;;;;;;0.20;0.20;;;-0.20;99.90;;;;;;5074339;28;20040;-46
2021/12/22 09:55:46;;;;;;;2.95;1.38;;;-0.10;99.90;;;;;;5074002;28;20036;-47
2021/12/22 09:58:12;;;;;;;0.00;0.00;;;0.00;99.90;;;;;;5072890;28;20382;-47
2021/12/22 10:00:41;;;;;;;0.52;0.52;;;-0.10;99.90;;;;;;5074298;28;20113;-48
2021/12/22 10:03:08;;;;;;;0.10;0.10;;;0.10;99.90;;;;;;5074184;28;20051;-46
2021/12/22 10:05:35;;;;;;;0.00;0.00;;;0.30;99.90;;;;;;5074138;28;20072;-51
2021/12/22 10:08:27;;;;;;;1.08;0.80;;;0.30;99.90;;;;;;5073734;28;20024;-48
2021/12/22 10:11:01;;;;;;;0.00;0.00;;;0.40;99.90;;;;;;5072598;28;20495;-49
2021/12/22 10:13:30;;;;;;;0.00;0.00;;;0.50;99.90;;;;;;5073870;28;20107;-48
2021/12/22 10:15:57;;;;;;;4.38;0.98;;;0.50;99.90;;;;;;5073947;28;20051;-46
2021/12/22 10:18:25;;;;;;;0.00;0.00;;;0.50;99.90;;;;;;5073692;28;20032;-49
2021/12/22 10:20:54;;;;;;;0.00;0.00;;;0.40;99.90;;;;;;5073552;28;20051;-47
2021/12/22 10:23:25;;;;;;;0.00;0.00;;;0.40;99.90;;;;;;5106417;28;20047;-50
2021/12/22 10:25:52;;;;;;;2.22;2.13;;;0.40;99.90;;;;;;5073259;28;20476;-49
2021/12/22 10:28:19;;;;;;;0.00;0.00;;;0.20;99.90;;;;;;5073519;28;20025;-50
2021/12/22 10:30:46;;;;;;;0.00;0.00;;;0.30;99.90;;;;;;5073709;28;20024;-47
2021/12/22 10:33:16;;;;;;;0.00;0.00;;;0.20;99.90;;;;;;5073247;28;20025;-47
2021/12/22 10:35:49;;;;;;;0.00;0.00;;;0.60;99.90;;;;;;5073089;28;20106;-48
2021/12/22 10:38:18;;;;;;;0.10;0.10;;;1.00;99.90;;;;;;5073710;28;20099;-49
2021/12/22 10:40:52;;;;;;;0.00;0.00;;;1.40;99.90;;;;;;5073099;28;20480;-49
2021/12/22 10:43:22;;;;;;;3.28;2.97;;;1.80;99.90;;;;;;5073361;28;20020;-48
2021/12/22 10:45:51;;;;;;;0.00;0.00;;;1.80;99.90;;;;;;5073106;28;20036;-49
2021/12/22 10:51:36;;;;;;;2.17;1.45;;;1.60;99.90;;;;;;5072910;28;20551;-51
2021/12/22 10:54:08;;;;;;;4.68;4.32;;;1.90;99.90;;;;;;5073230;28;20115;-47
2021/12/22 10:56:36;;;;;;;1.05;0.95;;;2.10;99.90;;;;;;5073030;28;20036;-51
2021/12/22 10:59:19;;;;;;;9.43;5.95;;;1.80;99.90;;;;;;5073322;28;20020;-50
2021/12/22 11:01:54;;;;;;;0.25;0.25;;;1.30;99.90;;;;;;5072874;28;20492;-48
2021/12/22 11:04:26;;;;;;;0.25;0.25;;;1.30;99.90;;;;;;5071257;28;20137;-47
2021/12/22 11:06:54;;;;;;;0.20;0.10;;;1.30;99.90;;;;;;5073272;28;20041;-50
2021/12/22 11:09:22;;;;;;;0.88;0.88;;;1.10;99.90;;;;;;5072756;28;20457;-50
2021/12/22 11:11:57;;;;;;;0.40;0.35;;;1.00;99.90;;;;;;5072592;28;20028;-49
2021/12/22 11:14:23;;;;;;;2.13;1.23;;;1.00;99.90;;;;;;5072915;28;20032;-50
2021/12/22 11:16:56;;;;;;;0.00;0.00;;;0.80;99.90;;;;;;5072411;28;20020;-46
2021/12/22 11:19:23;;;;;;;3.63;3.25;;;1.00;99.90;;;;;;5073072;28;20020;-54
2021/12/22 11:22:03;;;;;;;0.00;0.00;;;1.30;99.90;;;;;;5071775;28;20024;-48
2021/12/22 11:24:31;;;;;;;0.00;0.00;;;1.40;99.90;;;;;;5071250;28;20052;-48
2021/12/22 11:26:57;;;;;;;0.45;0.45;;;1.50;99.90;;;;;;5072612;28;20370;-48
2021/12/22 11:29:24;;;;;;;1.88;0.75;;;1.80;99.90;;;;;;5072523;28;20030;-49
2021/12/22 11:31:51;;;;;;;0.00;0.00;;;1.80;99.90;;;;;;5072329;28;20111;-48
2021/12/22 11:34:18;;;;;;;0.45;0.38;;;1.70;99.90;;;;;;5072057;28;20526;-48
2021/12/22 11:36:45;;;;;;;2.47;1.58;;;1.60;99.90;;;;;;5072371;28;20063;-49
2021/12/22 11:39:11;;;;;;;1.17;1.00;;;1.60;99.90;;;;;;5071096;28;20028;-50
2021/12/22 11:41:54;;;;;;;0.82;0.82;;;1.20;99.90;;;;;;5072060;28;20053;-53
2021/12/22 11:44:27;;;;;;;1.73;1.60;;;1.20;99.90;;;;;;5072583;28;20028;-47
2021/12/22 11:46:58;;;;;;;0.20;0.20;;;1.30;99.90;;;;;;5072710;28;20032;-46
2021/12/22 11:49:24;;;;;;;0.30;0.30;;;1.30;99.90;;;;;;5072425;28;20075;-48
2021/12/22 11:51:51;;;;;;;0.00;0.00;;;1.50;99.90;;;;;;5072018;28;20093;-49
2021/12/22 11:54:18;;;;;;;0.45;0.45;;;1.80;99.90;;;;;;5072317;28;20024;-48
2021/12/22 11:56:47;;;;;;;0.10;0.10;;;1.90;99.90;;;;;;5072506;28;20039;-48
2021/12/22 11:59:29;;;;;;;0.00;0.00;;;2.10;99.90;;;;;;5072397;28;20028;-46
2021/12/22 12:02:23;;;;;;;0.28;0.00;;;2.00;99.90;;;;;;5072771;28;20082;-48
2021/12/22 12:04:54;;;;;;;0.00;0.00;;;2.10;99.90;;;;;;5075160;28;20463;-50
2021/12/22 12:07:44;;;;;;;0.00;0.00;;;1.90;99.90;;;;;;5074608;28;20508;-50
2021/12/22 12:10:42;;;;;;;0.88;0.82;;;1.80;99.90;;;;;;5076060;28;20025;-51
2021/12/22 12:13:22;;;;;;;8.25;6.72;;;1.70;99.90;;;;;;5075630;28;20032;-51
2021/12/22 12:21:57;;;;;;;4.68;1.35;;;1.60;99.90;;;;;;5075554;28;20532;-53
2021/12/22 12:24:40;;;;;;;0.32;0.32;;;1.20;99.90;;;;;;5075311;28;20477;-49
2021/12/22 12:27:40;;;;;;;0.00;0.00;;;1.30;99.90;;;;;;5075472;28;20025;-51
2021/12/22 12:30:13;;;;;;;0.15;0.15;;;1.40;99.90;;;;;;5075616;28;20027;-49
2021/12/22 12:32:50;;;;;;;2.80;2.38;;;1.50;99.90;;;;;;5074447;28;20024;-48
2021/12/22 12:35:28;;;;;;;0.00;0.00;;;0.90;99.90;;;;;;5075402;28;20391;-49
2021/12/22 12:37:56;;;;;;;0.00;0.00;;;1.30;99.90;;;;;;5075611;28;20016;-51
2021/12/22 12:40:22;;;;;;;0.55;0.55;;;1.40;99.90;;;;;;5075206;28;20078;-52
2021/12/22 12:43:01;;;;;;;0.00;0.00;;;1.50;99.90;;;;;;5074912;28;20020;-49
2021/12/22 12:45:42;;;;;;;0.45;0.45;;;1.70;99.90;;;;;;5074936;28;20123;-47
2021/12/22 12:48:28;;;;;;;0.00;0.00;;;1.80;99.90;;;;;;5074746;28;20048;-52
2021/12/22 12:51:20;;;;;;;0.00;0.00;;;1.90;99.90;;;;;;5075195;28;20035;-48
2021/12/22 12:53:46;;;;;;;;;;;1.90;99.90;;;;;;5075286;28;20025;-49
2021/12/22 12:56:13;;;;;;;0.00;0.00;;;1.80;99.90;;;;;;5074684;28;19905;-51
2021/12/22 12:58:59;;;;;;;0.00;0.00;;;1.90;99.90;;;;;;5075057;28;20108;-47
2021/12/22 13:01:44;;;;;;;0.00;0.00;;;1.70;99.90;;;;;;5075491;28;20486;-48
2021/12/22 13:04:29;;;;;;;0.38;0.38;;;1.60;99.90;;;;;;5074643;28;20049;-48
2021/12/22 13:07:00;;;;;;;1.27;0.75;;;1.70;99.90;;;;;;5074557;28;20052;-52
2021/12/22 13:09:35;;;;;;;2.85;2.15;;;1.50;99.90;;;;;;5073811;28;20050;-53
2021/12/22 13:12:14;;;;;;;8.75;4.28;;;1.20;99.90;;;;;;5074461;28;20032;-49
2021/12/22 13:17:53;;;;;;;0.28;0.10;;;0.20;99.90;;;;;;5074313;28;20479;-52
2021/12/22 13:20:27;;;;;;;8.10;3.55;;;0.50;99.90;;;;;;5074477;28;20052;-52
2021/12/22 13:22:56;;;;;;;0.00;0.00;;;0.20;99.90;;;;;;5073334;28;20359;-51
2021/12/22 13:25:24;;;;;;;0.00;0.00;;;0.20;99.90;;;;;;5072982;28;20041;-48
2021/12/22 13:27:54;;;;;;;0.45;0.22;;;0.30;99.90;;;;;;5073088;28;20445;-49
2021/12/22 13:30:22;;;;;;;3.10;2.90;;;0.60;99.90;;;;;;5074682;28;20020;-49
2021/12/22 13:33:03;;;;;;;15.40;3.53;;;0.80;99.90;;;;;;5063854;28;20036;-50